createdAt,value
2024-02-12T00:01:56.478Z,7.70
2024-02-12T00:04:28.131Z,8.10
2024-02-12T00:06:58.518Z,8.70
2024-02-12T00:09:28.322Z,8.40
2024-02-12T00:11:58.336Z,7.90
2024-02-12T00:14:28.254Z,7.90
2024-02-12T00:17:06.161Z,7.70
2024-02-12T00:19:39.381Z,7.50
2024-02-12T00:22:11.558Z,6.60
2024-02-12T00:24:41.800Z,7.10
2024-02-12T00:27:12.547Z,7.20
2024-02-12T00:29:42.303Z,7.60
2024-02-12T00:32:12.401Z,7.80
2024-02-12T00:34:42.879Z,7.50
2024-02-12T00:37:14.862Z,7.10
2024-02-12T00:39:44.709Z,6.40
2024-02-12T00:42:14.532Z,7.30
2024-02-12T00:44:44.412Z,6.80
2024-02-12T00:47:14.281Z,8.60
2024-02-12T00:49:45.169Z,6.80
2024-02-12T00:52:19.465Z,7.30
2024-02-12T00:54:49.231Z,6.70
2024-02-12T00:57:22.062Z,7.20
2024-02-12T00:59:53.059Z,7.30
2024-02-12T01:02:23.763Z,7.50
2024-02-12T01:04:55.711Z,7.10
2024-02-12T01:07:26.302Z,7.50
2024-02-12T01:09:58.463Z,7.50
2024-02-12T01:12:28.240Z,6.30
2024-02-12T01:15:01.375Z,8.20
2024-02-12T01:17:33.070Z,7.10
2024-02-12T01:20:03.104Z,7.10
2024-02-12T01:22:34.509Z,8.30
2024-02-12T01:25:05.853Z,7.10
2024-02-12T01:27:35.603Z,7.40
2024-02-12T01:30:07.087Z,8.00
2024-02-12T01:32:36.884Z,8.10
2024-02-12T01:35:07.767Z,7.20
2024-02-12T01:37:37.711Z,8.10
2024-02-12T01:40:10.340Z,8.70
2024-02-12T01:42:40.058Z,8.20
2024-02-12T01:45:15.119Z,7.80
2024-02-12T01:47:52.247Z,8.40
2024-02-12T01:50:22.337Z,7.10
2024-02-12T01:52:53.614Z,8.10
2024-02-12T01:55:25.131Z,8.70
2024-02-12T01:57:55.670Z,9.10
2024-02-12T02:00:28.666Z,10.40
2024-02-12T02:02:59.196Z,8.70
2024-02-12T02:05:29.205Z,8.90
2024-02-12T02:08:02.080Z,8.80
2024-02-12T02:10:33.623Z,8.80
2024-02-12T02:13:04.740Z,8.40
2024-02-12T02:15:37.391Z,9.20
2024-02-12T02:18:12.628Z,9.20
2024-02-12T02:20:42.576Z,9.60
2024-02-12T02:23:12.730Z,9.70
2024-02-12T02:25:47.090Z,8.80
2024-02-12T02:28:16.992Z,9.50
2024-02-12T02:30:49.715Z,9.30
2024-02-12T02:33:19.773Z,8.70
2024-02-12T02:35:49.894Z,8.40
2024-02-12T02:38:19.938Z,9.10
2024-02-12T02:40:52.954Z,8.90
2024-02-12T02:43:22.788Z,9.00
2024-02-12T02:45:52.810Z,9.20
2024-02-12T02:48:28.276Z,8.80
2024-02-12T02:50:59.102Z,9.10
2024-02-12T02:53:29.010Z,7.70
2024-02-12T02:55:59.219Z,9.10
2024-02-12T02:58:28.976Z,9.30
2024-02-12T03:00:59.163Z,8.30
2024-02-12T03:03:29.526Z,9.60
2024-02-12T03:06:00.354Z,9.30
2024-02-12T03:08:31.441Z,9.50
2024-02-12T03:11:02.856Z,8.20
2024-02-12T03:13:32.961Z,9.50
2024-02-12T03:16:02.810Z,9.50
2024-02-12T03:18:32.721Z,9.60
2024-02-12T03:21:03.384Z,8.60
2024-02-12T03:23:35.354Z,9.20
2024-02-12T03:26:10.187Z,8.90
2024-02-12T03:31:08.700Z,8.90
2024-02-12T03:33:38.713Z,9.20
2024-02-12T03:36:10.067Z,9.10
2024-02-12T03:38:42.468Z,10.20
2024-02-12T03:41:19.984Z,10.40
2024-02-12T03:43:54.100Z,9.10
2024-02-12T03:46:32.440Z,8.30
2024-02-12T03:49:23.246Z,7.90
2024-02-12T03:52:11.991Z,8.30
2024-02-12T03:55:02.408Z,8.30
2024-02-12T03:57:51.667Z,9.90
2024-02-12T04:00:24.063Z,7.80
2024-02-12T04:02:56.960Z,8.60
2024-02-12T04:05:28.468Z,7.00
2024-02-12T04:07:58.531Z,7.70
2024-02-12T04:10:29.526Z,6.50
2024-02-12T04:13:02.428Z,8.00
2024-02-12T04:15:32.258Z,7.30
2024-02-12T04:18:02.050Z,7.50
2024-02-12T04:20:34.810Z,7.70
2024-02-12T04:23:08.619Z,7.70
2024-02-12T04:25:40.994Z,7.10
2024-02-12T04:28:14.729Z,7.70
2024-02-12T04:30:48.703Z,6.80
2024-02-12T04:33:18.555Z,6.60
2024-02-12T04:35:50.893Z,5.80
2024-02-12T04:38:22.415Z,5.90
2024-02-12T04:40:52.357Z,4.40
2024-02-12T04:43:22.355Z,4.90
2024-02-12T04:45:55.589Z,4.00
2024-02-12T04:48:26.094Z,4.10
2024-02-12T04:50:56.673Z,4.70
2024-02-12T04:53:27.491Z,3.90
2024-02-12T04:55:57.428Z,4.20
2024-02-12T04:58:27.604Z,4.40
2024-02-12T05:00:59.748Z,4.70
2024-02-12T05:03:35.053Z,4.30
2024-02-12T05:06:08.173Z,4.60
2024-02-12T05:08:38.433Z,4.30
2024-02-12T05:11:08.306Z,5.00
2024-02-12T05:13:41.516Z,4.60
2024-02-12T05:16:11.349Z,4.90
2024-02-12T05:19:00.653Z,5.00
2024-02-12T05:21:49.464Z,4.60
2024-02-12T05:24:23.091Z,4.20
2024-02-12T05:26:52.923Z,4.40
2024-02-12T05:29:22.749Z,5.60
2024-02-12T05:31:52.933Z,5.00
2024-02-12T05:34:24.543Z,4.70
2024-02-12T05:36:55.180Z,5.10
2024-02-12T05:39:27.155Z,5.60
2024-02-12T05:41:57.013Z,5.30
2024-02-12T05:44:26.978Z,4.90
2024-02-12T05:46:56.966Z,5.60
2024-02-12T05:49:27.392Z,5.20
2024-02-12T05:51:58.254Z,5.60
2024-02-12T05:54:28.688Z,5.70
2024-02-12T05:56:59.014Z,6.50
2024-02-12T05:59:28.837Z,5.90
2024-02-12T06:01:58.607Z,4.80
2024-02-12T06:04:28.356Z,4.80
2024-02-12T06:06:58.368Z,5.00
2024-02-12T06:09:31.551Z,5.30
2024-02-12T06:12:01.348Z,5.20
2024-02-12T06:14:31.613Z,6.10
2024-02-12T06:17:01.990Z,5.70
2024-02-12T06:19:31.822Z,5.20
2024-02-12T06:22:02.447Z,5.80
2024-02-12T06:24:32.979Z,5.60
2024-02-12T06:27:02.883Z,5.60
2024-02-12T06:29:32.785Z,5.40
2024-02-12T06:32:02.720Z,5.40
2024-02-12T06:34:34.709Z,5.40
2024-02-12T06:37:04.786Z,4.80
2024-02-12T06:39:34.577Z,4.50
2024-02-12T06:42:07.613Z,4.00
2024-02-12T06:44:37.740Z,4.70
2024-02-12T06:47:11.015Z,4.60
2024-02-12T06:49:44.191Z,3.70
2024-02-12T06:52:17.435Z,3.50
2024-02-12T06:54:49.137Z,3.60
2024-02-12T06:57:19.237Z,4.00
2024-02-12T06:59:49.152Z,3.40
2024-02-12T07:02:21.231Z,3.40
2024-02-12T07:04:51.104Z,3.30
2024-02-12T07:07:21.055Z,2.90
2024-02-12T07:09:55.307Z,3.40
2024-02-12T07:12:25.082Z,3.20
2024-02-12T07:14:55.057Z,3.90
2024-02-12T07:17:27.498Z,3.60
2024-02-12T07:20:00.248Z,2.80
2024-02-12T07:22:32.984Z,3.00
2024-02-12T07:25:06.394Z,3.60
2024-02-12T07:27:38.010Z,4.20
2024-02-12T07:30:10.159Z,4.10
2024-02-12T07:32:42.658Z,3.60
2024-02-12T07:35:12.821Z,3.00
2024-02-12T07:37:45.462Z,3.60
2024-02-12T07:40:18.557Z,3.20
2024-02-12T07:42:49.246Z,2.90
2024-02-12T07:45:19.094Z,3.50
2024-02-12T07:47:51.733Z,3.40
2024-02-12T07:50:21.926Z,3.40
2024-02-12T07:52:54.609Z,3.90
2024-02-12T07:55:25.768Z,3.20
2024-02-12T07:57:59.622Z,4.10
2024-02-12T08:00:29.782Z,3.00
2024-02-12T08:03:02.150Z,3.40
2024-02-12T08:05:36.321Z,3.30
2024-02-12T08:08:09.228Z,3.70
2024-02-12T08:10:39.177Z,3.20
2024-02-12T08:13:09.398Z,4.20
2024-02-12T08:15:40.213Z,5.30
2024-02-12T08:18:10.275Z,3.40
2024-02-12T08:20:40.676Z,3.00
2024-02-12T08:23:10.989Z,3.20
2024-02-12T08:25:41.036Z,3.10
2024-02-12T08:28:11.002Z,3.10
2024-02-12T08:30:42.941Z,3.00
2024-02-12T08:33:15.248Z,3.20
2024-02-12T08:35:45.172Z,2.40
2024-02-12T08:38:15.153Z,2.60
2024-02-12T08:40:45.298Z,3.50
2024-02-12T08:43:16.321Z,4.70
2024-02-12T08:45:49.130Z,3.10
2024-02-12T08:48:19.015Z,2.80
2024-02-12T08:50:51.657Z,3.10
2024-02-12T08:53:23.642Z,2.60
2024-02-12T08:55:56.300Z,2.70
2024-02-12T08:58:26.111Z,2.70
2024-02-12T09:00:58.327Z,2.80
2024-02-12T09:03:28.143Z,3.00
2024-02-12T09:05:57.999Z,3.30
2024-02-12T09:08:27.774Z,2.90
2024-02-12T09:11:00.412Z,2.90
2024-02-12T09:13:32.420Z,3.30
2024-02-12T09:16:02.203Z,3.40
2024-02-12T09:18:32.145Z,2.60
2024-02-12T09:21:04.080Z,3.20
2024-02-12T09:23:34.474Z,2.70
2024-02-12T09:26:07.103Z,3.50
2024-02-12T09:28:39.625Z,3.00
2024-02-12T09:31:09.976Z,2.80
2024-02-12T09:33:39.840Z,2.70
2024-02-12T09:36:10.258Z,3.00
2024-02-12T09:38:40.170Z,3.20
2024-02-12T09:41:12.390Z,3.10
2024-02-12T09:43:47.773Z,4.30
2024-02-12T09:46:20.191Z,3.30
2024-02-12T09:48:50.464Z,3.00
2024-02-12T09:51:25.035Z,2.80
2024-02-12T09:53:56.991Z,2.90
2024-02-12T09:56:27.611Z,2.90
2024-02-12T09:58:57.893Z,2.50
2024-02-12T10:01:28.982Z,3.30
2024-02-12T10:03:59.368Z,2.50
2024-02-12T10:06:31.775Z,3.60
2024-02-12T10:09:09.515Z,2.30
2024-02-12T10:11:41.059Z,2.80
2024-02-12T10:14:13.069Z,2.70
2024-02-12T10:16:43.790Z,2.50
2024-02-12T10:19:13.618Z,2.60
2024-02-12T10:21:43.419Z,2.50
2024-02-12T10:24:13.563Z,3.10
2024-02-12T10:26:44.057Z,2.70
2024-02-12T10:29:15.233Z,2.70
2024-02-12T10:31:45.594Z,3.00
2024-02-12T10:34:21.661Z,3.20
2024-02-12T10:36:58.895Z,4.20
2024-02-12T10:39:31.785Z,3.00
2024-02-12T10:42:27.972Z,3.30
2024-02-12T10:45:03.764Z,3.10
2024-02-12T10:47:36.990Z,3.40
2024-02-12T10:50:14.738Z,3.00
2024-02-12T10:52:47.767Z,2.80
2024-02-12T10:55:18.127Z,2.90
2024-02-12T10:57:48.361Z,2.70
2024-02-12T11:00:29.590Z,3.40
2024-02-12T11:05:31.907Z,3.10
2024-02-12T11:08:09.817Z,2.80
2024-02-12T11:10:45.107Z,2.60
2024-02-12T11:13:20.718Z,2.50
2024-02-12T11:15:54.396Z,2.20
2024-02-12T11:18:34.579Z,2.90
2024-02-12T11:21:09.649Z,2.60
2024-02-12T11:26:16.085Z,2.20
2024-02-12T11:28:54.335Z,3.10
2024-02-12T11:31:30.095Z,3.00
2024-02-12T11:34:03.432Z,3.10
2024-02-12T11:36:34.492Z,2.50
2024-02-12T11:41:39.251Z,2.20
2024-02-12T11:44:09.470Z,2.50
2024-02-12T11:46:42.189Z,2.40
2024-02-12T11:49:13.998Z,3.10
2024-02-12T11:51:43.790Z,2.90
2024-02-12T11:54:15.263Z,3.00
2024-02-12T11:56:46.190Z,2.30
2024-02-12T11:59:19.897Z,2.50
2024-02-12T12:01:50.172Z,2.50
2024-02-12T12:04:20.229Z,2.60
2024-02-12T12:06:52.171Z,2.90
2024-02-12T12:09:25.114Z,1.80
2024-02-12T12:11:55.307Z,2.10
2024-02-12T12:14:26.960Z,2.10
2024-02-12T12:17:28.347Z,1.80
2024-02-12T12:19:48.349Z,1.70
2024-02-12T12:22:21.887Z,2.60
2024-02-12T12:24:54.850Z,2.20
2024-02-12T12:27:28.354Z,3.20
2024-02-12T12:30:14.220Z,3.10
2024-02-12T12:32:44.954Z,2.50
2024-02-12T12:35:17.855Z,3.70
2024-02-12T12:37:48.222Z,2.50
2024-02-12T12:40:21.274Z,2.40
2024-02-12T12:42:54.265Z,2.30
2024-02-12T12:45:26.078Z,2.70
2024-02-12T12:47:56.137Z,2.00
2024-02-12T12:50:27.791Z,1.70
2024-02-12T12:52:57.804Z,2.00
2024-02-12T12:55:30.546Z,2.50
2024-02-12T12:58:03.328Z,2.40
2024-02-12T13:00:37.382Z,2.00
2024-02-12T13:03:09.926Z,2.20
2024-02-12T13:05:42.660Z,2.30
2024-02-12T13:08:19.682Z,1.90
2024-02-12T13:10:52.775Z,1.90
2024-02-12T13:13:25.014Z,2.30
2024-02-12T13:15:54.775Z,1.90
2024-02-12T13:18:31.306Z,1.50
2024-02-12T13:21:03.752Z,2.20
2024-02-12T13:23:33.741Z,2.10
2024-02-12T13:26:13.487Z,1.30
2024-02-12T13:28:43.945Z,1.30
2024-02-12T13:31:16.013Z,1.70
2024-02-12T13:33:46.284Z,1.20
2024-02-12T13:36:16.705Z,1.50
2024-02-12T13:38:47.292Z,1.60
2024-02-12T13:41:17.687Z,1.70
2024-02-12T13:43:49.541Z,1.50
2024-02-12T13:46:36.564Z,1.30
2024-02-12T13:49:14.164Z,1.60
2024-02-12T13:51:48.100Z,1.30
2024-02-12T13:54:17.965Z,1.40
2024-02-12T13:56:50.044Z,1.50
2024-02-12T13:59:19.854Z,1.10
2024-02-12T14:01:55.898Z,1.20
2024-02-12T14:04:30.710Z,1.40
2024-02-12T14:07:00.766Z,1.20
2024-02-12T14:09:31.150Z,1.10
2024-02-12T14:12:01.606Z,1.40
2024-02-12T14:14:31.415Z,2.00
2024-02-12T14:17:01.325Z,1.40
2024-02-12T14:19:31.334Z,1.30
2024-02-12T14:22:01.259Z,1.50
2024-02-12T14:24:33.308Z,1.50
2024-02-12T14:27:07.539Z,1.40
2024-02-12T14:29:39.195Z,1.50
2024-02-12T14:32:38.283Z,1.20
2024-02-12T14:34:59.315Z,1.50
2024-02-12T14:37:29.761Z,1.40
2024-02-12T14:40:02.574Z,1.40
2024-02-12T14:42:34.939Z,1.30
2024-02-12T14:45:06.800Z,1.40
2024-02-12T14:47:42.424Z,1.30
2024-02-12T14:50:20.009Z,1.10
2024-02-12T14:52:54.542Z,1.30
2024-02-12T14:55:24.350Z,0.80
2024-02-12T14:57:58.983Z,1.70
2024-02-12T15:00:29.371Z,1.80
2024-02-12T15:03:01.658Z,1.70
2024-02-12T15:05:31.481Z,1.50
2024-02-12T15:08:01.550Z,1.20
2024-02-12T15:10:36.325Z,1.50
2024-02-12T15:13:06.580Z,1.40
2024-02-12T15:15:40.992Z,1.40
2024-02-12T15:18:13.795Z,1.10
2024-02-12T15:20:47.439Z,1.00
2024-02-12T15:23:17.807Z,1.60
2024-02-12T15:25:47.664Z,1.30
2024-02-12T15:28:18.038Z,1.20
2024-02-12T15:30:49.785Z,1.20
2024-02-12T15:33:20.333Z,1.50
2024-02-12T15:35:51.889Z,1.40
2024-02-12T15:38:23.529Z,1.70
2024-02-12T15:40:55.764Z,2.00
2024-02-12T15:43:26.817Z,1.20
2024-02-12T15:45:59.533Z,1.10
2024-02-12T15:48:29.642Z,1.10
2024-02-12T15:51:01.159Z,1.30
2024-02-12T15:53:31.526Z,1.80
2024-02-12T15:56:06.097Z,1.80
2024-02-12T15:58:38.379Z,1.90
2024-02-12T16:01:09.877Z,2.00
2024-02-12T16:03:42.515Z,2.40
2024-02-12T16:06:16.094Z,2.00
2024-02-12T16:08:46.349Z,2.20
2024-02-12T16:11:19.837Z,1.70
2024-02-12T16:13:53.653Z,1.60
2024-02-12T16:16:27.866Z,1.40
2024-02-12T16:19:01.529Z,1.50
2024-02-12T16:21:33.810Z,1.60
2024-02-12T16:24:03.846Z,2.30
2024-02-12T16:26:34.078Z,2.20
2024-02-12T16:29:06.482Z,2.20
2024-02-12T16:31:40.970Z,2.30
2024-02-12T16:34:11.338Z,1.50
2024-02-12T16:36:43.854Z,1.40
2024-02-12T16:39:15.567Z,1.60
2024-02-12T16:41:45.993Z,1.70
2024-02-12T16:44:15.918Z,2.20
2024-02-12T16:46:46.591Z,2.70
2024-02-12T16:49:16.838Z,1.60
2024-02-12T16:51:51.011Z,1.90
2024-02-12T16:54:21.132Z,2.00
2024-02-12T16:56:53.716Z,1.90
2024-02-12T16:59:26.133Z,2.10
2024-02-12T17:01:56.035Z,2.20
2024-02-12T17:04:26.127Z,1.90
2024-02-12T17:06:56.099Z,1.60
2024-02-12T17:09:26.317Z,2.20
2024-02-12T17:11:56.165Z,2.10
2024-02-12T17:14:28.500Z,2.80
2024-02-12T17:16:58.326Z,2.70
2024-02-12T17:19:28.313Z,2.90
2024-02-12T17:21:58.074Z,1.90
2024-02-12T17:24:27.887Z,2.20
2024-02-12T17:26:57.636Z,2.20
2024-02-12T17:29:28.492Z,2.20
2024-02-12T17:31:58.919Z,2.00
2024-02-12T17:34:31.210Z,1.90
2024-02-12T17:37:01.357Z,2.30
2024-02-12T17:39:36.826Z,2.30
2024-02-12T17:42:10.116Z,2.90
2024-02-12T17:44:39.846Z,2.10
2024-02-12T17:47:12.415Z,2.40
2024-02-12T17:49:49.252Z,3.10
2024-02-12T17:52:25.054Z,4.20
2024-02-12T17:54:54.850Z,3.20
2024-02-12T17:57:27.289Z,3.80
2024-02-12T17:59:57.287Z,3.20
2024-02-12T18:02:27.423Z,3.30
2024-02-12T18:04:59.298Z,3.50
2024-02-12T18:07:32.715Z,3.80
2024-02-12T18:10:02.461Z,4.80
2024-02-12T18:12:35.528Z,3.80
2024-02-12T18:15:06.220Z,3.30
2024-02-12T18:17:39.019Z,4.20
2024-02-12T18:20:14.981Z,4.00
2024-02-12T18:22:44.843Z,3.60
2024-02-12T18:25:15.838Z,3.30
2024-02-12T18:27:46.822Z,4.20
2024-02-12T18:30:17.271Z,3.50
2024-02-12T18:32:49.170Z,4.00
2024-02-12T18:35:19.316Z,4.00
2024-02-12T18:37:51.407Z,4.10
2024-02-12T18:40:22.753Z,4.10
2024-02-12T18:42:54.979Z,3.80
2024-02-12T18:45:26.398Z,5.20
2024-02-12T18:48:00.799Z,4.20
2024-02-12T18:50:30.816Z,4.10
2024-02-12T18:53:02.140Z,5.70
2024-02-12T18:55:35.615Z,5.60
2024-02-12T18:58:07.983Z,6.10
2024-02-12T19:00:40.934Z,5.90
2024-02-12T19:03:11.584Z,6.50
2024-02-12T19:05:43.246Z,6.40
2024-02-12T19:08:16.751Z,6.30
2024-02-12T19:10:49.200Z,6.90
2024-02-12T19:13:21.214Z,7.60
2024-02-12T19:15:51.986Z,7.80
2024-02-12T19:18:25.321Z,7.30
2024-02-12T19:20:59.722Z,6.20
2024-02-12T19:23:29.500Z,6.70
2024-02-12T19:26:00.617Z,6.90
2024-02-12T19:28:30.786Z,7.50
2024-02-12T19:31:00.677Z,6.50
2024-02-12T19:33:31.270Z,6.10
2024-02-12T19:36:01.457Z,6.40
2024-02-12T19:38:31.300Z,5.60
2024-02-12T19:41:01.112Z,4.80
2024-02-12T19:43:30.943Z,6.30
2024-02-12T19:46:00.821Z,6.00
2024-02-12T19:48:31.149Z,5.40
2024-02-12T19:51:01.107Z,6.80
2024-02-12T19:53:31.174Z,6.20
2024-02-12T19:56:05.138Z,6.10
2024-02-12T19:58:35.581Z,6.70
2024-02-12T20:01:07.768Z,6.70
2024-02-12T20:03:37.978Z,6.10
2024-02-12T20:06:11.001Z,6.20
2024-02-12T20:08:42.480Z,6.70
2024-02-12T20:11:13.294Z,6.00
2024-02-12T20:13:45.368Z,6.30
2024-02-12T20:16:17.977Z,5.40
2024-02-12T20:18:47.955Z,5.40
2024-02-12T20:21:20.600Z,7.30
2024-02-12T20:23:50.485Z,5.90
2024-02-12T20:26:22.366Z,6.30
2024-02-12T20:28:54.772Z,5.50
2024-02-12T20:31:24.615Z,5.80
2024-02-12T20:33:54.696Z,5.60
2024-02-12T20:36:26.741Z,5.80
2024-02-12T20:38:56.622Z,6.20
2024-02-12T20:41:26.475Z,5.70
2024-02-12T20:43:56.267Z,5.70
2024-02-12T20:46:31.855Z,4.80
2024-02-12T20:49:07.701Z,5.70
2024-02-12T20:51:40.049Z,5.60
2024-02-12T20:54:12.661Z,5.60
2024-02-12T20:56:43.564Z,5.70
2024-02-12T20:59:14.309Z,5.90
2024-02-12T21:01:45.070Z,5.80
2024-02-12T21:04:14.890Z,6.40
2024-02-12T21:06:46.985Z,6.40
2024-02-12T21:09:19.971Z,5.80
2024-02-12T21:11:49.862Z,5.80
2024-02-12T21:14:24.423Z,5.80
2024-02-12T21:16:56.795Z,5.20
2024-02-12T21:19:28.710Z,6.10
2024-02-12T21:21:58.661Z,6.20
2024-02-12T21:24:28.482Z,5.90
2024-02-12T21:27:00.617Z,6.80
2024-02-12T21:29:30.663Z,5.90
2024-02-12T21:32:01.612Z,6.10
2024-02-12T21:34:36.430Z,6.00
2024-02-12T21:37:11.645Z,5.90
2024-02-12T21:39:47.041Z,5.50
2024-02-12T21:42:27.956Z,6.30
2024-02-12T21:44:59.904Z,6.30
2024-02-12T21:47:29.989Z,6.40
2024-02-12T21:49:59.960Z,6.20
2024-02-12T21:52:29.755Z,7.00
2024-02-12T21:54:59.484Z,6.50
2024-02-12T21:57:32.475Z,6.40
2024-02-12T22:00:08.445Z,5.70
2024-02-12T22:02:42.858Z,7.00
2024-02-12T22:05:12.914Z,7.30
2024-02-12T22:07:45.684Z,6.40
2024-02-12T22:10:17.686Z,6.60
2024-02-12T22:12:47.529Z,6.20
2024-02-12T22:15:17.494Z,6.70
2024-02-12T22:17:47.399Z,5.80
2024-02-12T22:20:20.047Z,5.90
2024-02-12T22:22:50.113Z,6.40
2024-02-12T22:25:22.144Z,5.80
2024-02-12T22:27:57.159Z,6.20
2024-02-12T22:32:59.049Z,5.70
2024-02-12T22:35:29.888Z,6.30
2024-02-12T22:38:00.083Z,6.70
2024-02-12T22:40:30.086Z,6.30
2024-02-12T22:42:59.954Z,6.70
2024-02-12T22:45:29.699Z,6.30
2024-02-12T22:48:02.583Z,6.80
2024-02-12T22:50:35.504Z,7.20
2024-02-12T22:53:05.698Z,6.90
2024-02-12T22:55:35.525Z,6.80
2024-02-12T22:58:09.564Z,7.30
2024-02-12T23:00:42.472Z,6.20
2024-02-12T23:03:14.257Z,6.40
2024-02-12T23:05:46.472Z,7.00
2024-02-12T23:08:16.794Z,7.20
2024-02-12T23:10:46.879Z,7.00
2024-02-12T23:13:18.169Z,7.40
2024-02-12T23:15:48.040Z,6.40
2024-02-12T23:18:18.565Z,8.70
2024-02-12T23:20:49.018Z,6.60
2024-02-12T23:23:18.929Z,6.20
2024-02-12T23:25:51.431Z,6.90
2024-02-12T23:28:23.916Z,6.50
2024-02-12T23:30:56.003Z,7.20
2024-02-12T23:33:26.855Z,6.60
2024-02-12T23:35:57.031Z,7.60
2024-02-12T23:38:30.653Z,7.00
2024-02-12T23:41:00.480Z,6.80
2024-02-12T23:43:30.791Z,6.90
2024-02-12T23:46:01.005Z,6.30
2024-02-12T23:48:32.722Z,6.60
2024-02-12T23:51:08.618Z,6.40
2024-02-12T23:53:42.826Z,6.60
2024-02-12T23:56:24.115Z,7.10
2024-02-12T23:58:54.169Z,6.10
